createdAt,value
2019-06-08T00:00:51.017Z,14.60
2019-06-08T00:03:18.827Z,14.50
2019-06-08T00:05:46.869Z,14.50
2019-06-08T00:08:15.073Z,14.50
2019-06-08T00:10:43.950Z,14.50
2019-06-08T00:13:15.150Z,14.50
2019-06-08T00:15:44.443Z,14.50
2019-06-08T00:18:19.735Z,14.50
2019-06-08T00:20:46.636Z,14.50
2019-06-08T00:23:15.743Z,14.50
2019-06-08T00:25:45.677Z,14.50
2019-06-08T00:28:20.521Z,14.50
2019-06-08T00:30:51.366Z,14.50
2019-06-08T00:33:18.934Z,14.50
2019-06-08T00:35:48.289Z,14.40
2019-06-08T00:38:16.869Z,14.40
2019-06-08T00:40:49.583Z,14.40
2019-06-08T00:43:19.645Z,14.40
2019-06-08T00:45:47.621Z,14.40
2019-06-08T00:48:16.740Z,14.40
2019-06-08T00:50:44.418Z,14.40
2019-06-08T00:53:12.743Z,14.40
2019-06-08T00:55:41.519Z,14.40
2019-06-08T00:58:11.195Z,14.40
2019-06-08T01:00:38.915Z,14.40
2019-06-08T01:03:06.977Z,14.40
2019-06-08T01:05:34.990Z,14.40
2019-06-08T01:08:04.135Z,14.40
2019-06-08T01:10:34.388Z,14.40
2019-06-08T01:13:02.539Z,14.40
2019-06-08T01:15:34.100Z,14.40
2019-06-08T01:18:03.875Z,14.30
2019-06-08T01:20:34.142Z,14.30
2019-06-08T01:23:03.545Z,14.30
2019-06-08T01:25:35.815Z,14.30
2019-06-08T01:28:04.181Z,14.30
2019-06-08T01:30:32.257Z,14.30
2019-06-08T01:33:02.609Z,14.30
2019-06-08T01:35:34.434Z,14.30
2019-06-08T01:38:02.340Z,14.30
2019-06-08T01:40:31.455Z,14.20
2019-06-08T01:42:59.713Z,14.30
2019-06-08T01:45:32.817Z,14.30
2019-06-08T01:48:18.883Z,14.30
2019-06-08T01:50:35.315Z,14.30
2019-06-08T01:53:06.241Z,14.30
2019-06-08T01:55:37.338Z,14.20
2019-06-08T01:58:05.553Z,14.30
2019-06-08T02:00:41.163Z,14.30
2019-06-08T02:03:07.716Z,14.20
2019-06-08T02:05:41.284Z,14.20
2019-06-08T02:08:13.352Z,14.20
2019-06-08T02:10:43.661Z,14.20
2019-06-08T02:13:11.601Z,14.20
2019-06-08T02:15:40.635Z,14.20
2019-06-08T02:18:14.312Z,14.20
2019-06-08T02:20:42.338Z,14.20
2019-06-08T02:23:10.592Z,14.20
2019-06-08T02:25:39.590Z,14.10
2019-06-08T02:28:08.029Z,14.10
2019-06-08T02:30:43.003Z,14.10
2019-06-08T02:33:14.768Z,14.00
2019-06-08T02:35:45.959Z,14.00
2019-06-08T02:38:16.876Z,14.00
2019-06-08T02:40:54.817Z,13.90
2019-06-08T02:43:24.521Z,13.80
2019-06-08T02:45:56.054Z,13.80
2019-06-08T02:49:02.774Z,13.70
2019-06-08T02:51:23.035Z,13.70
2019-06-08T02:54:02.424Z,13.60
2019-06-08T02:56:39.276Z,13.60
2019-06-08T02:59:15.998Z,13.60
2019-06-08T03:01:57.761Z,13.60
2019-06-08T03:04:49.039Z,13.50
2019-06-08T03:07:19.747Z,13.50
2019-06-08T03:09:52.776Z,13.60
2019-06-08T03:12:28.663Z,13.60
2019-06-08T03:14:58.754Z,13.60
2019-06-08T03:17:31.099Z,13.60
2019-06-08T03:19:58.967Z,13.60
2019-06-08T03:22:27.219Z,13.60
2019-06-08T03:25:00.691Z,13.60
2019-06-08T03:27:34.849Z,13.60
2019-06-08T03:30:15.244Z,13.60
2019-06-08T03:32:34.877Z,13.60
2019-06-08T03:35:03.993Z,13.50
2019-06-08T03:37:44.390Z,13.50
2019-06-08T03:40:22.488Z,13.50
2019-06-08T03:42:51.079Z,13.50
2019-06-08T03:45:19.651Z,13.50
2019-06-08T03:47:49.107Z,13.50
2019-06-08T03:50:18.999Z,13.60
2019-06-08T03:52:46.776Z,13.60
2019-06-08T03:55:17.001Z,13.60
2019-06-08T03:57:46.326Z,13.60
2019-06-08T04:00:14.483Z,13.60
2019-06-08T04:02:44.156Z,13.60
2019-06-08T04:05:12.729Z,13.50
2019-06-08T04:07:42.082Z,13.60
2019-06-08T04:10:12.953Z,13.50
2019-06-08T04:12:41.872Z,13.50
2019-06-08T04:15:09.852Z,13.60
2019-06-08T04:17:39.766Z,13.60
2019-06-08T04:20:11.404Z,13.60
2019-06-08T04:22:46.978Z,13.50
2019-06-08T04:25:15.368Z,13.50
2019-06-08T04:27:52.861Z,13.50
2019-06-08T04:30:32.958Z,13.60
2019-06-08T04:33:01.288Z,13.80
2019-06-08T04:35:29.248Z,13.90
2019-06-08T04:38:06.614Z,13.90
2019-06-08T04:40:39.330Z,14.30
2019-06-08T04:43:10.204Z,14.50
2019-06-08T04:45:38.886Z,14.80
2019-06-08T04:48:09.652Z,15.20
2019-06-08T04:50:49.862Z,15.60
2019-06-08T04:53:50.308Z,16.00
2019-06-08T04:56:21.414Z,15.70
2019-06-08T05:02:20.795Z,15.00
2019-06-08T05:05:04.144Z,14.80
2019-06-08T05:07:50.133Z,14.70
2019-06-08T05:10:18.774Z,14.60
2019-06-08T05:12:47.698Z,14.50
2019-06-08T05:15:32.919Z,14.50
2019-06-08T05:18:47.351Z,14.40
2019-06-08T05:25:20.927Z,14.40
2019-06-08T05:27:55.471Z,14.40
2019-06-08T05:30:31.219Z,14.40
2019-06-08T06:04:05.094Z,14.80
2019-06-08T06:18:53.829Z,14.90
2019-06-08T06:21:22.301Z,15.00
2019-06-08T06:23:57.826Z,15.00
2019-06-08T06:26:29.575Z,15.00
2019-06-08T06:29:02.103Z,15.20
2019-06-08T06:31:32.400Z,15.40
2019-06-08T06:34:13.407Z,15.60
2019-06-08T06:36:43.785Z,15.90
2019-06-08T06:39:13.666Z,16.60
2019-06-08T06:41:46.149Z,16.90
2019-06-08T06:44:57.567Z,17.40
2019-06-08T06:47:26.240Z,17.60
2019-06-08T06:54:18.489Z,18.00
2019-06-08T06:56:31.012Z,18.30
2019-06-08T06:59:43.442Z,18.50
2019-06-08T07:02:43.541Z,18.00
2019-06-08T07:11:15.516Z,18.30
2019-06-08T07:13:55.700Z,18.30
2019-06-08T07:16:30.111Z,18.50
2019-06-08T07:18:58.803Z,18.90
2019-06-08T07:21:40.985Z,18.70
2019-06-08T07:23:56.782Z,18.50
2019-06-08T07:26:25.462Z,18.10
2019-06-08T07:28:55.189Z,18.10
2019-06-08T07:31:26.147Z,18.00
2019-06-08T07:33:55.533Z,18.00
2019-06-08T07:36:23.635Z,18.00
2019-06-08T07:39:01.182Z,18.40
2019-06-08T07:41:28.817Z,18.70
2019-06-08T07:43:57.060Z,18.60
2019-06-08T07:46:25.300Z,18.80
2019-06-08T07:48:58.602Z,18.70
2019-06-08T07:51:26.988Z,18.40
2019-06-08T07:53:56.423Z,18.30
2019-06-08T07:56:28.017Z,18.30
2019-06-08T07:58:57.179Z,18.60
2019-06-08T08:01:35.744Z,18.70
2019-06-08T08:04:02.308Z,18.30
2019-06-08T08:06:33.987Z,18.20
2019-06-08T08:09:02.343Z,18.00
2019-06-08T08:11:31.952Z,17.70
2019-06-08T08:14:03.276Z,17.50
2019-06-08T08:16:34.323Z,17.20
2019-06-08T08:19:08.136Z,17.10
2019-06-08T08:21:43.203Z,17.00
2019-06-08T08:24:10.976Z,16.90
2019-06-08T08:26:39.274Z,16.90
2019-06-08T08:29:09.657Z,16.80
2019-06-08T08:31:38.265Z,16.70
2019-06-08T08:34:14.185Z,16.70
2019-06-08T08:36:48.172Z,16.70
2019-06-08T08:39:18.816Z,16.70
2019-06-08T08:41:53.595Z,16.70
2019-06-08T08:44:18.962Z,16.60
2019-06-08T08:46:48.782Z,16.40
2019-06-08T08:49:18.222Z,16.30
2019-06-08T08:51:50.657Z,16.20
2019-06-08T08:54:20.259Z,16.20
2019-06-08T08:56:56.874Z,16.20
2019-06-08T08:59:24.052Z,16.20
2019-06-08T09:01:59.821Z,16.30
2019-06-08T09:04:27.816Z,16.20
2019-06-08T09:07:05.686Z,16.50
2019-06-08T09:09:30.258Z,16.50
2019-06-08T09:12:02.299Z,16.50
2019-06-08T09:14:33.953Z,16.50
2019-06-08T09:17:03.560Z,16.60
2019-06-08T09:19:38.303Z,16.70
2019-06-08T09:22:08.529Z,16.80
2019-06-08T09:24:38.997Z,16.80
2019-06-08T09:27:10.586Z,16.80
2019-06-08T09:29:42.169Z,16.80
2019-06-08T09:32:21.722Z,16.60
2019-06-08T09:34:48.309Z,16.50
2019-06-08T09:37:30.174Z,16.50
2019-06-08T09:39:58.943Z,16.50
2019-06-08T09:42:40.008Z,16.50
2019-06-08T09:45:12.694Z,16.60
2019-06-08T09:47:41.408Z,16.60
2019-06-08T09:50:12.635Z,16.70
2019-06-08T09:52:41.492Z,16.90
2019-06-08T09:55:18.975Z,17.10
2019-06-08T09:57:48.775Z,17.40
2019-06-08T10:00:39.777Z,17.50
2019-06-08T10:03:06.367Z,17.70
2019-06-08T10:05:35.701Z,17.80
2019-06-08T10:08:09.551Z,17.70
2019-06-08T10:11:12.772Z,17.70
2019-06-08T10:13:47.812Z,17.50
2019-06-08T10:16:18.585Z,17.40
2019-06-08T10:18:57.648Z,17.40
2019-06-08T10:26:06.727Z,17.10
2019-06-08T10:28:33.938Z,16.90
2019-06-08T10:31:12.268Z,16.90
2019-06-08T10:33:40.945Z,16.70
2019-06-08T10:36:19.106Z,16.70
2019-06-08T10:38:50.579Z,16.80
2019-06-08T10:41:27.621Z,16.80
2019-06-08T10:44:05.498Z,17.00
2019-06-08T10:46:27.688Z,16.80
2019-06-08T10:48:59.635Z,16.70
2019-06-08T10:51:32.120Z,16.60
2019-06-08T10:54:00.404Z,16.40
2019-06-08T10:56:31.143Z,16.20
2019-06-08T10:59:01.737Z,16.10
2019-06-08T11:01:29.345Z,16.00
2019-06-08T11:03:58.416Z,16.10
2019-06-08T11:06:27.104Z,16.20
2019-06-08T11:08:55.302Z,16.40
2019-06-08T11:11:23.786Z,16.60
2019-06-08T11:13:57.824Z,16.70
2019-06-08T11:16:28.660Z,16.70
2019-06-08T11:19:01.041Z,16.70
2019-06-08T11:21:29.357Z,16.60
2019-06-08T11:24:07.632Z,16.70
2019-06-08T11:26:39.966Z,16.70
2019-06-08T11:29:09.550Z,16.70
2019-06-08T11:31:40.128Z,16.70
2019-06-08T11:34:10.108Z,16.60
2019-06-08T11:37:03.230Z,16.80
2019-06-08T11:39:33.517Z,17.00
2019-06-08T11:42:08.728Z,17.10
2019-06-08T11:44:39.565Z,17.20
2019-06-08T11:47:13.396Z,17.20
2019-06-08T11:49:41.362Z,17.10
2019-06-08T11:52:11.191Z,17.30
2019-06-08T11:54:42.385Z,17.40
2019-06-08T11:57:12.788Z,17.30
2019-06-08T11:59:58.455Z,17.40
2019-06-08T12:02:28.604Z,17.60
2019-06-08T12:04:57.271Z,17.70
2019-06-08T12:07:28.236Z,17.70
2019-06-08T12:09:58.375Z,17.60
2019-06-08T12:12:31.581Z,17.60
2019-06-08T12:15:02.901Z,17.60
2019-06-08T12:17:43.886Z,17.50
2019-06-08T12:20:24.388Z,17.50
2019-06-08T12:22:53.074Z,17.50
2019-06-08T12:28:20.005Z,17.60
2019-06-08T12:30:48.878Z,17.90
2019-06-08T12:33:19.173Z,18.80
2019-06-08T12:35:47.725Z,19.00
2019-06-08T12:38:19.021Z,19.20
2019-06-08T12:40:48.609Z,19.40
2019-06-08T12:43:18.947Z,19.40
2019-06-08T12:45:46.613Z,19.70
2019-06-08T12:48:23.470Z,19.60
2019-06-08T12:50:50.029Z,19.30
2019-06-08T12:53:22.825Z,19.10
2019-06-08T12:56:00.295Z,19.10
2019-06-08T12:58:59.739Z,18.90
2019-06-08T13:01:18.661Z,19.20
2019-06-08T13:03:48.689Z,19.30
2019-06-08T13:06:35.198Z,19.30
2019-06-08T13:09:18.852Z,19.00
2019-06-08T13:11:50.409Z,18.80
2019-06-08T13:14:28.422Z,18.50
2019-06-08T13:17:08.687Z,18.30
2019-06-08T13:25:15.158Z,17.80
2019-06-08T13:27:21.027Z,17.70
2019-06-08T13:30:00.137Z,17.60
2019-06-08T13:32:31.921Z,17.70
2019-06-08T13:35:24.323Z,17.70
2019-06-08T13:37:57.377Z,17.80
2019-06-08T13:40:39.814Z,17.80
2019-06-08T13:43:08.749Z,17.80
2019-06-08T13:45:45.557Z,17.80
2019-06-08T13:48:23.335Z,17.90
2019-06-08T13:55:40.398Z,18.10
2019-06-08T14:01:10.196Z,18.30
2019-06-08T14:03:41.942Z,18.20
2019-06-08T14:06:10.150Z,18.10
2019-06-08T14:09:08.392Z,18.10
2019-06-08T14:11:47.649Z,18.10
2019-06-08T14:14:25.863Z,18.30
2019-06-08T14:17:03.594Z,18.30
2019-06-08T14:23:19.596Z,18.60
2019-06-08T14:25:56.731Z,19.30
2019-06-08T14:28:24.447Z,19.80
2019-06-08T14:30:56.198Z,20.00
2019-06-08T14:33:33.334Z,20.10
2019-06-08T14:36:03.966Z,20.60
2019-06-08T14:38:49.545Z,20.40
2019-06-08T14:41:37.837Z,20.30
2019-06-08T14:44:08.860Z,20.20
2019-06-08T14:46:40.834Z,20.10
2019-06-08T14:49:06.498Z,19.80
2019-06-08T14:55:34.346Z,19.50
2019-06-08T14:58:02.588Z,19.30
2019-06-08T15:00:32.467Z,19.20
2019-06-08T15:03:07.684Z,19.10
2019-06-08T15:05:57.630Z,19.10
2019-06-08T15:08:42.743Z,19.00
2019-06-08T15:11:21.696Z,18.90
2019-06-08T15:13:51.659Z,18.70
2019-06-08T15:16:41.821Z,18.70
2019-06-08T15:19:15.426Z,18.80
2019-06-08T15:22:13.733Z,18.60
2019-06-08T15:24:44.248Z,18.60
2019-06-08T15:27:12.557Z,18.50
2019-06-08T15:29:44.736Z,18.40
2019-06-08T15:32:42.163Z,18.40
2019-06-08T15:35:33.807Z,18.40
2019-06-08T15:38:54.288Z,18.40
2019-06-08T15:41:48.705Z,18.30
2019-06-08T15:44:21.343Z,18.20
2019-06-08T15:46:51.049Z,18.20
2019-06-08T15:49:24.110Z,18.20
2019-06-08T15:54:38.529Z,18.20
2019-06-08T15:57:13.007Z,18.10
2019-06-08T15:59:44.647Z,18.10
2019-06-08T16:02:14.712Z,18.10
2019-06-08T16:04:49.522Z,18.00
2019-06-08T16:07:31.281Z,17.90
2019-06-08T16:13:26.969Z,17.70
2019-06-08T16:15:59.405Z,17.60
2019-06-08T16:18:31.732Z,17.50
2019-06-08T16:21:07.843Z,17.20
2019-06-08T16:23:44.846Z,16.90
2019-06-08T16:26:11.835Z,16.70
2019-06-08T16:28:40.306Z,16.80
2019-06-08T16:31:08.163Z,17.50
2019-06-08T16:33:35.980Z,17.90
2019-06-08T16:36:04.326Z,18.00
2019-06-08T16:38:32.525Z,17.70
2019-06-08T16:41:03.941Z,18.00
2019-06-08T16:43:33.557Z,18.10
2019-06-08T16:46:06.124Z,18.40
2019-06-08T16:48:36.310Z,18.40
2019-06-08T16:51:11.453Z,18.30
2019-06-08T16:53:45.546Z,18.10
2019-06-08T16:56:14.065Z,17.90
2019-06-08T16:58:46.504Z,17.70
2019-06-08T17:01:17.703Z,17.50
2019-06-08T17:03:47.717Z,17.30
2019-06-08T17:06:15.902Z,17.30
2019-06-08T17:08:44.936Z,17.30
2019-06-08T17:11:31.710Z,17.30
2019-06-08T17:14:01.911Z,17.20
2019-06-08T17:16:32.145Z,17.20
2019-06-08T17:19:15.804Z,17.40
2019-06-08T17:21:44.264Z,17.80
2019-06-08T17:24:32.406Z,17.70
2019-06-08T17:27:43.795Z,17.20
2019-06-08T17:30:14.846Z,17.10
2019-06-08T17:32:49.062Z,17.10
2019-06-08T17:35:23.190Z,17.00
2019-06-08T17:37:51.805Z,16.90
2019-06-08T17:40:24.487Z,16.90
2019-06-08T17:42:57.388Z,16.70
2019-06-08T17:52:29.336Z,16.40
2019-06-08T17:54:57.646Z,16.10
2019-06-08T17:57:52.810Z,15.70
2019-06-08T18:00:31.001Z,15.60
2019-06-08T18:03:24.055Z,15.70
2019-06-08T18:09:01.872Z,15.50
2019-06-08T18:21:21.907Z,15.30
2019-06-08T18:23:59.803Z,15.20
2019-06-08T18:27:17.956Z,15.00
2019-06-08T18:29:18.789Z,14.80
2019-06-08T18:31:48.131Z,14.70
2019-06-08T18:34:19.372Z,14.60
2019-06-08T18:36:50.738Z,14.60
2019-06-08T18:39:34.948Z,14.60
2019-06-08T18:45:14.676Z,14.70
2019-06-08T18:47:50.307Z,14.60
2019-06-08T18:50:35.192Z,14.60
2019-06-08T18:53:23.092Z,14.60
2019-06-08T18:55:52.535Z,14.50
2019-06-08T18:58:24.723Z,14.40
2019-06-08T19:01:11.989Z,14.30
2019-06-08T19:03:52.894Z,14.10
2019-06-08T19:06:20.876Z,14.10
2019-06-08T19:08:50.975Z,14.10
2019-06-08T19:11:34.013Z,14.00
2019-06-08T19:14:11.398Z,14.10
2019-06-08T19:16:49.883Z,14.10
2019-06-08T19:19:20.326Z,14.00
2019-06-08T19:21:54.794Z,14.00
2019-06-08T19:24:25.045Z,14.00
2019-06-08T19:29:51.598Z,13.90
2019-06-08T19:35:27.212Z,13.90
2019-06-08T19:37:53.600Z,13.90
2019-06-08T19:40:21.857Z,13.80
2019-06-08T19:43:14.971Z,13.80
2019-06-08T19:45:44.243Z,13.70
2019-06-08T19:48:23.377Z,13.70
2019-06-08T19:50:54.207Z,13.70
2019-06-08T19:53:28.661Z,13.70
2019-06-08T19:56:17.414Z,13.60
2019-06-08T19:59:00.262Z,13.60
2019-06-08T20:01:31.102Z,13.60
2019-06-08T20:04:00.831Z,13.50
2019-06-08T20:06:29.827Z,13.50
2019-06-08T20:08:57.734Z,13.50
2019-06-08T20:11:26.110Z,13.40
2019-06-08T20:13:53.890Z,13.40
2019-06-08T20:16:21.543Z,13.40
2019-06-08T20:18:53.047Z,13.40
2019-06-08T20:21:21.385Z,13.40
2019-06-08T20:23:59.486Z,13.40
2019-06-08T20:26:28.459Z,13.40
2019-06-08T20:29:12.061Z,13.40
2019-06-08T20:31:32.683Z,13.40
2019-06-08T20:34:00.416Z,13.50
2019-06-08T20:36:28.999Z,13.50
2019-06-08T20:39:07.221Z,13.60
2019-06-08T20:41:40.144Z,13.70
2019-06-08T20:44:42.298Z,13.70
2019-06-08T20:47:22.612Z,13.70
2019-06-08T20:50:07.631Z,13.80
2019-06-08T20:53:59.017Z,13.80
2019-06-08T20:56:17.485Z,13.80
2019-06-08T20:58:59.067Z,13.80
2019-06-08T21:02:28.497Z,13.80
2019-06-08T21:05:18.176Z,13.80
2019-06-08T21:08:01.399Z,13.70
2019-06-08T21:10:29.431Z,13.70
2019-06-08T21:12:58.647Z,13.70
2019-06-08T21:15:27.445Z,13.70
2019-06-08T21:17:58.523Z,13.60
2019-06-08T21:20:28.275Z,13.60
2019-06-08T21:22:59.708Z,13.60
2019-06-08T21:25:28.650Z,13.50
2019-06-08T21:27:58.191Z,13.50
2019-06-08T21:30:28.625Z,13.50
2019-06-08T21:33:28.383Z,13.50
2019-06-08T21:36:05.185Z,13.50
2019-06-08T21:38:39.571Z,13.50
2019-06-08T21:41:27.908Z,13.50
2019-06-08T21:44:37.223Z,13.50
2019-06-08T21:47:12.235Z,13.50
2019-06-08T21:49:43.237Z,13.50
2019-06-08T21:52:13.167Z,13.50
2019-06-08T21:54:41.201Z,13.50
2019-06-08T21:58:34.895Z,13.40
2019-06-08T22:00:39.508Z,13.40
2019-06-08T22:03:17.444Z,13.40
2019-06-08T22:08:11.853Z,13.40
2019-06-08T22:09:13.329Z,13.40
2019-06-08T22:15:20.521Z,13.40
2019-06-08T22:24:34.539Z,13.30
2019-06-08T22:27:02.224Z,13.30
2019-06-08T22:30:35.215Z,13.30
2019-06-08T22:33:21.271Z,13.30
2019-06-08T22:36:05.519Z,13.30
2019-06-08T22:38:38.266Z,13.20
2019-06-08T22:41:03.526Z,13.20
2019-06-08T22:43:34.086Z,13.10
2019-06-08T22:46:03.443Z,13.10
2019-06-08T22:48:31.365Z,13.10
2019-06-08T22:51:01.429Z,13.10
2019-06-08T22:53:29.226Z,13.00
2019-06-08T22:56:00.788Z,13.00
2019-06-08T22:58:27.925Z,13.00
2019-06-08T23:00:57.006Z,12.90
2019-06-08T23:03:25.435Z,12.90
2019-06-08T23:05:54.818Z,12.90
2019-06-08T23:08:22.989Z,12.90
2019-06-08T23:10:50.969Z,12.90
2019-06-08T23:13:18.433Z,12.90
2019-06-08T23:15:47.922Z,12.90
2019-06-08T23:18:17.914Z,12.90
2019-06-08T23:20:47.757Z,12.80
2019-06-08T23:23:21.150Z,12.80
2019-06-08T23:26:00.557Z,12.80
2019-06-08T23:28:32.850Z,12.80
2019-06-08T23:31:19.347Z,12.80
2019-06-08T23:33:42.052Z,12.80
2019-06-08T23:36:39.488Z,12.80
2019-06-08T23:38:51.348Z,12.80
2019-06-08T23:41:32.797Z,12.70
2019-06-08T23:44:03.563Z,12.70
2019-06-08T23:46:34.645Z,12.70
2019-06-08T23:49:03.899Z,12.70
2019-06-08T23:51:32.110Z,12.60
2019-06-08T23:54:02.017Z,12.60
2019-06-08T23:56:29.173Z,12.60
2019-06-08T23:58:56.877Z,12.60
